Time;durP1;ratioP1;P1;durP2;ratioP2;P2;SDS_P1;SDS_P2;PMS_P1;PMS_P2;Temp;Humidity;BMP_temperature;BMP_pressure;BME280_temperature;BME280_humidity;BME280_pressure;Samples;Min_cycle;Max_cycle;Signal;HPM_P1;HPM_P2
2021/12/02 00:01:39;;;;;;;49.73;25.30;;;;;;;2.76;94.08;98914.22;5013065;28;20268;-86
2021/12/02 00:04:05;;;;;;;45.40;22.97;;;;;;;1.54;92.74;98709.63;5013769;28;20214;-85
2021/12/02 00:06:32;;;;;;;51.23;24.27;;;;;;;3.14;93.75;98969.22;5012773;28;20203;-87
2021/12/02 00:08:57;;;;;;;47.37;22.57;;;;;;;0.29;93.48;98494.25;5013208;28;20173;-85
2021/12/02 00:11:22;;;;;;;50.53;22.40;;;;;;;-0.21;94.53;98438.53;5013938;28;20398;-86
2021/12/02 00:16:28;;;;;;;39.93;21.60;;;;;;;2.22;96.48;98861.50;5014539;28;20163;-85
2021/12/02 00:21:25;;;;;;;48.47;22.47;;;;;;;3.06;95.61;98984.47;5022763;28;20408;-85
2021/12/02 00:24:02;;;;;;;42.23;21.00;;;;;;;2.95;96.56;98984.66;5008755;28;20210;-85
2021/12/02 00:26:28;;;;;;;47.57;21.57;;;;;;;2.97;96.07;98994.75;5020843;28;20445;-86
2021/12/02 00:28:56;;;;;;;43.53;22.13;;;;;;;2.85;96.56;98994.81;5014331;28;20405;-85
2021/12/02 00:31:30;;;;;;;50.87;24.47;;;;;;;1.02;97.19;98670.34;4997726;28;20406;-87
2021/12/02 00:33:58;;;;;;;57.67;26.23;;;;;;;2.56;97.47;98954.50;5015248;28;20413;-85
2021/12/02 00:36:26;;;;;;;58.27;26.03;;;;;;;0.21;97.44;98590.78;5013649;28;20390;-85
2021/12/02 00:38:52;;;;;;;56.67;27.23;;;;;;;0.28;97.39;98582.97;5013346;28;20398;-87
2021/12/02 00:41:20;;;;;;;55.90;25.17;;;;;;;2.00;96.69;98882.41;5011918;28;20466;-86
2021/12/02 00:43:48;;;;;;;59.13;27.80;;;;;;;-0.14;97.18;98528.59;5011978;28;20496;-85
2021/12/02 00:46:17;;;;;;;59.17;28.27;;;;;;;-0.06;97.25;98504.28;5014105;28;21274;-87
2021/12/02 00:48:43;;;;;;;62.43;28.93;;;;;;;2.70;97.62;98998.78;5013373;28;20402;-86
2021/12/02 00:51:10;;;;;;;82.47;36.70;;;;;;;0.53;97.89;98626.25;5013387;28;20397;-86
2021/12/02 00:53:44;;;;;;;87.97;37.43;;;;;;;2.34;97.20;98961.31;4995313;28;20166;-85
2021/12/02 00:56:13;;;;;;;112.27;43.70;;;;;;;0.55;98.55;98689.47;4994980;28;20473;-85
2021/12/02 00:58:38;;;;;;;126.17;47.60;;;;;;;1.72;99.00;98917.06;5011683;28;20413;-85
2021/12/02 01:01:04;;;;;;;110.47;44.00;;;;;;;2.25;99.39;98973.19;5012998;28;20398;-85
2021/12/02 01:03:34;;;;;;;111.77;44.37;;;;;;;1.48;98.67;98846.38;5011572;28;20199;-85
2021/12/02 01:06:00;;;;;;;105.73;42.13;;;;;;;0.91;98.70;98735.13;5011499;28;20498;-85
2021/12/02 01:08:26;;;;;;;114.07;44.13;;;;;;;0.40;98.36;98702.44;4995260;28;20895;-85
2021/12/02 01:10:52;;;;;;;200.63;71.90;;;;;;;0.48;99.69;98697.25;5011873;28;20444;-84
2021/12/02 01:13:17;;;;;;;319.87;108.57;;;;;;;1.05;100.00;98819.19;4995391;28;20504;-85
2021/12/02 01:15:43;;;;;;;272.27;93.87;;;;;;;0.40;100.00;98727.34;5012937;28;20159;-85
2021/12/02 01:18:08;;;;;;;232.77;85.47;;;;;;;1.95;100.00;98963.56;5012036;28;20220;-85
2021/12/02 01:20:35;;;;;;;299.30;97.60;;;;;;;-0.72;100.00;98526.06;4995488;28;20232;-85
2021/12/02 01:23:01;;;;;;;235.97;76.93;;;;;;;0.91;100.00;98823.19;4995489;28;20647;-85
2021/12/02 01:25:32;;;;;;;168.40;58.70;;;;;;;1.03;100.00;98870.56;5013112;28;20405;-84
2021/12/02 01:27:59;;;;;;;157.63;57.13;;;;;;;1.53;100.00;98947.31;5014242;28;20423;-85
2021/12/02 01:30:29;;;;;;;151.00;55.00;;;;;;;1.71;100.00;98938.63;5013866;28;20397;-84
2021/12/02 01:33:05;;;;;;;138.67;50.07;;;;;;;-1.57;100.00;98369.13;5015679;28;20394;-84
2021/12/02 01:35:33;;;;;;;122.70;46.97;;;;;;;-1.09;100.00;98486.00;5012094;28;20424;-85
2021/12/02 01:37:59;;;;;;;112.00;43.47;;;;;;;-0.52;100.00;98567.25;5012522;28;20409;-85
2021/12/02 01:40:26;;;;;;;117.43;45.30;;;;;;;-0.90;100.00;98528.81;4995041;28;20410;-84
2021/12/02 01:42:53;;;;;;;130.33;49.83;;;;;;;1.63;100.00;98948.84;5013943;28;20163;-85
2021/12/02 01:45:29;;;;;;;131.23;49.47;;;;;;;0.45;100.00;98746.84;5016490;28;20405;-85
2021/12/02 01:47:57;;;;;;;141.90;51.17;;;;;;;0.95;100.00;98816.81;4999356;28;20492;-84
2021/12/02 01:50:25;;;;;;;124.63;49.73;;;;;;;0.23;100.00;98683.81;5026408;28;20409;-84
2021/12/02 01:52:59;;;;;;;120.87;47.40;;;;;;;1.50;100.00;98948.72;5024032;28;20412;-85
2021/12/02 01:55:26;;;;;;;117.93;44.77;;;;;;;0.91;100.00;98859.69;4998693;28;20472;-86
2021/12/02 01:58:04;;;;;;;99.77;39.03;;;;;;;-0.01;100.00;98727.72;4998240;28;20463;-86
2021/12/02 02:00:44;;;;;;;117.77;41.83;;;;;;;1.32;100.00;98973.19;5014829;28;20420;-86
2021/12/02 02:03:11;;;;;;;105.33;39.97;;;;;;;1.12;100.00;98960.94;4998240;28;20457;-85
2021/12/02 02:05:37;;;;;;;101.33;38.93;;;;;;;1.11;100.00;98955.09;4998974;28;20434;-85
2021/12/02 02:08:23;;;;;;;96.37;37.17;;;;;;;0.45;100.00;98815.66;5016398;28;20409;-85
2021/12/02 02:10:49;;;;;;;113.97;43.47;;;;;;;1.34;100.00;98958.38;5017734;28;20197;-85
2021/12/02 02:13:17;;;;;;;100.20;39.63;;;;;;;1.51;100.00;98958.78;5015251;28;20459;-86
2021/12/02 02:15:46;;;;;;;127.80;47.13;;;;;;;-1.86;100.00;98414.06;5014828;28;20448;-85
2021/12/02 02:20:49;;;;;;;177.47;58.77;;;;;;;1.54;100.00;98964.00;5017500;28;20475;-85
2021/12/02 02:23:15;;;;;;;168.07;59.40;;;;;;;-2.67;100.00;98265.88;5015294;28;20444;-85
2021/12/02 02:25:43;;;;;;;173.60;61.03;;;;;;;-1.43;100.00;98478.53;5015427;28;20398;-86
2021/12/02 02:28:08;;;;;;;183.57;64.07;;;;;;;-1.80;100.00;98459.19;5015423;28;20675;-86
2021/12/02 02:30:34;;;;;;;148.57;52.33;;;;;;;-2.16;100.00;98429.97;5015079;28;20889;-85
2021/12/02 02:32:59;;;;;;;149.20;53.40;;;;;;;-2.28;100.00;98396.81;5015543;28;20217;-86
2021/12/02 02:35:25;;;;;;;143.60;51.87;;;;;;;0.52;100.00;98843.59;5015711;28;20218;-85
2021/12/02 02:37:51;;;;;;;128.23;46.70;;;;;;;-1.74;100.00;98493.50;5013864;28;20167;-86
2021/12/02 02:40:17;;;;;;;160.67;57.20;;;;;;;-0.40;100.00;98689.09;4997951;28;20174;-86
2021/12/02 02:42:48;;;;;;;147.73;53.87;;;;;;;1.25;100.00;98972.66;5013810;28;20194;-85
2021/12/02 02:45:15;;;;;;;124.70;45.57;;;;;;;0.72;100.00;98849.16;5015490;28;20443;-85
2021/12/02 02:47:41;;;;;;;98.50;40.10;;;;;;;-0.94;100.00;98597.28;4998088;28;20567;-85
2021/12/02 02:50:11;;;;;;;92.43;35.27;;;;;;;1.23;100.00;98939.28;5014321;28;20448;-85
2021/12/02 02:52:36;;;;;;;65.33;27.93;;;;;;;-0.07;100.00;98737.22;5015280;28;20170;-85
2021/12/02 02:55:02;;;;;;;70.60;28.43;;;;;;;0.55;100.00;98863.75;5014659;28;20402;-85
2021/12/02 02:57:30;;;;;;;62.77;27.37;;;;;;;-1.84;100.00;98447.31;5014759;28;20218;-85
2021/12/02 03:00:05;;;;;;;68.00;27.40;;;;;;;0.27;100.00;98799.41;5013736;28;20162;-85
2021/12/02 03:02:54;;;;;;;81.43;31.90;;;;;;;1.18;100.00;98961.41;4997132;28;20497;-84
2021/12/02 03:05:27;;;;;;;90.03;35.43;;;;;;;-1.01;100.00;98597.56;5015252;28;20896;-85
2021/12/02 03:08:09;;;;;;;92.30;35.10;;;;;;;0.66;100.00;98906.03;5015449;28;20440;-85
2021/12/02 03:13:20;;;;;;;129.80;44.27;;;;;;;1.12;100.00;98975.91;5018917;28;20405;-85
2021/12/02 03:18:31;;;;;;;94.93;36.13;;;;;;;0.36;100.00;98850.72;5031751;28;20409;-85
2021/12/02 03:20:56;;;;;;;92.90;35.23;;;;;;;0.89;100.00;98926.00;5039084;28;20429;-85
2021/12/02 03:23:23;;;;;;;84.83;34.10;;;;;;;1.29;100.00;98987.09;5037088;28;20199;-85
2021/12/02 03:25:49;;;;;;;81.43;32.73;;;;;;;0.92;100.00;98949.50;5035673;28;20159;-85
2021/12/02 03:28:14;;;;;;;72.07;30.13;;;;;;;-0.13;100.00;98773.19;5033182;28;20504;-84
2021/12/02 03:30:40;;;;;;;65.13;27.80;;;;;;;0.04;100.00;98777.78;5013351;28;20563;-84
2021/12/02 03:33:05;;;;;;;66.57;28.57;;;;;;;-1.41;100.00;98534.16;5012820;28;20268;-85
2021/12/02 03:35:31;;;;;;;68.07;30.93;;;;;;;-0.71;100.00;98649.53;4996543;28;20181;-84
2021/12/02 03:37:56;;;;;;;84.00;34.33;;;;;;;-1.98;100.00;98435.50;5014208;28;20159;-84
2021/12/02 03:40:22;;;;;;;102.47;45.17;;;;;;;-0.67;100.00;98643.19;5014303;28;20562;-84
2021/12/02 03:42:51;;;;;;;124.33;53.53;;;;;;;1.28;100.00;98970.38;4996348;28;20620;-85
2021/12/02 03:45:17;;;;;;;110.97;47.93;;;;;;;1.32;100.00;98977.34;5013874;28;20190;-84
2021/12/02 03:47:43;;;;;;;79.23;36.73;;;;;;;-0.64;100.00;98643.41;4997367;28;20476;-85
2021/12/02 03:50:09;;;;;;;60.53;27.67;;;;;;;-2.13;100.00;98388.09;5028241;28;20409;-85
2021/12/02 03:52:34;;;;;;;56.20;24.50;;;;;;;1.11;100.00;98930.16;5027674;28;20175;-85
2021/12/02 03:55:00;;;;;;;54.93;24.00;;;;;;;-0.58;100.00;98628.09;5014955;28;20229;-85
2021/12/02 03:57:28;;;;;;;43.00;20.00;;;;;;;-0.49;100.00;98671.00;4994210;28;20226;-83
2021/12/02 03:59:54;;;;;;;37.90;18.10;;;;;;;-0.44;100.00;98687.16;4995143;28;20268;-85
2021/12/02 04:02:20;;;;;;;39.53;18.23;;;;;;;-1.65;100.00;98481.81;4995510;28;20978;-85
2021/12/02 04:04:45;;;;;;;35.60;16.87;;;;;;;-2.14;100.00;98390.47;4994302;28;20646;-85
2021/12/02 04:07:11;;;;;;;36.20;16.27;;;;;;;1.00;100.00;98905.22;4996176;28;20548;-85
2021/12/02 04:09:41;;;;;;;40.13;18.63;;;;;;;1.33;100.00;98972.47;4992846;28;20230;-85
2021/12/02 04:17:42;;;;;;;41.67;19.83;;;;;;;0.29;100.00;98777.97;4959669;29;20889;-84
2021/12/02 04:20:22;;;;;;;42.27;21.03;;;;;;;1.36;100.00;98962.72;4953882;29;20944;-84
2021/12/02 04:22:48;;;;;;;54.77;23.83;;;;;;;-0.20;100.00;98704.75;4936878;29;20459;-85
2021/12/02 04:25:14;;;;;;;55.03;25.23;;;;;;;0.71;100.00;98835.00;4952929;29;20483;-85
2021/12/02 04:27:40;;;;;;;54.43;24.37;;;;;;;0.63;100.00;98812.03;4953526;29;20233;-85
2021/12/02 04:30:09;;;;;;;57.77;24.23;;;;;;;1.05;100.00;98874.88;4954554;29;20416;-85
2021/12/02 04:32:35;;;;;;;69.93;30.73;;;;;;;1.48;100.00;98945.28;4954403;29;20185;-85
2021/12/02 04:35:00;;;;;;;63.10;28.50;;;;;;;-1.78;100.00;98430.41;4954925;29;20424;-85
2021/12/02 04:37:26;;;;;;;60.67;26.63;;;;;;;-0.48;100.00;98625.53;4953523;29;20424;-85
2021/12/02 04:39:51;;;;;;;63.50;27.30;;;;;;;-0.03;100.00;98734.19;4953918;29;20646;-84
2021/12/02 04:42:16;;;;;;;60.87;27.93;;;;;;;0.09;100.00;98744.16;4954550;29;20196;-84
2021/12/02 04:44:42;;;;;;;112.13;49.03;;;;;;;0.13;100.00;98733.69;4954590;29;20708;-85
2021/12/02 04:47:09;;;;;;;77.27;32.80;;;;;;;1.44;100.00;98964.13;4953791;29;20216;-84
2021/12/02 04:49:35;;;;;;;86.40;36.53;;;;;;;0.10;100.00;98728.50;4954667;29;20208;-85
2021/12/02 04:52:01;;;;;;;74.87;30.93;;;;;;;-1.25;100.00;98521.25;4937201;29;20419;-85
2021/12/02 04:54:27;;;;;;;67.83;28.77;;;;;;;-1.09;100.00;98566.31;4974298;28;20422;-85
2021/12/02 04:56:52;;;;;;;76.30;35.33;;;;;;;-0.16;100.00;98739.00;5004765;28;20552;-85
2021/12/02 04:59:17;;;;;;;84.37;39.87;;;;;;;1.32;100.00;98965.72;5014927;28;20232;-85
2021/12/02 05:01:43;;;;;;;75.93;36.70;;;;;;;-0.15;100.00;98734.91;5011725;28;20174;-85
2021/12/02 05:04:09;;;;;;;71.17;31.50;;;;;;;-1.65;100.00;98523.97;5012933;28;20191;-85
2021/12/02 05:06:34;;;;;;;66.17;30.07;;;;;;;-1.08;100.00;98615.25;5014772;28;20190;-85
2021/12/02 05:09:00;;;;;;;67.57;30.20;;;;;;;-0.03;100.00;98817.91;4997964;28;20558;-85
2021/12/02 05:11:25;;;;;;;73.33;30.70;;;;;;;-1.70;100.00;98536.00;5012509;28;20249;-86
2021/12/02 05:13:51;;;;;;;65.87;29.00;;;;;;;-1.29;100.00;98616.13;4995590;28;20624;-85
2021/12/02 05:16:16;;;;;;;64.83;28.33;;;;;;;0.84;100.00;98969.63;4995619;28;20220;-86
2021/12/02 05:18:42;;;;;;;99.03;43.17;;;;;;;-1.00;100.00;98676.28;5016575;28;20163;-85
2021/12/02 05:21:07;;;;;;;76.57;37.77;;;;;;;-1.09;100.00;98685.50;4999340;28;20167;-85
2021/12/02 05:23:33;;;;;;;65.03;30.23;;;;;;;-0.09;100.00;98844.81;5016564;28;20238;-85
2021/12/02 05:25:59;;;;;;;70.57;30.27;;;;;;;-0.40;100.00;98803.44;5016676;28;20217;-86
2021/12/02 05:28:24;;;;;;;66.70;28.77;;;;;;;0.30;100.00;98880.09;4998867;28;20238;-85
2021/12/02 05:30:50;;;;;;;63.10;28.80;;;;;;;-2.32;100.00;98422.13;4999171;28;20170;-85
2021/12/02 05:33:15;;;;;;;67.63;30.40;;;;;;;1.03;100.00;98975.22;5016914;28;20194;-85
2021/12/02 05:35:41;;;;;;;79.93;31.37;;;;;;;0.05;100.00;98830.91;5017337;28;20600;-84
2021/12/02 05:38:06;;;;;;;75.27;31.97;;;;;;;0.62;100.00;98874.16;4999136;28;20257;-85
2021/12/02 05:40:32;;;;;;;92.83;33.50;;;;;;;-2.29;100.00;98399.19;5015521;28;20228;-85
2021/12/02 05:42:57;;;;;;;109.27;39.67;;;;;;;-0.50;100.00;98729.81;5018012;28;20553;-85
2021/12/02 05:45:23;;;;;;;75.80;33.20;;;;;;;0.81;100.00;98932.91;5017998;28;20225;-85
2021/12/02 05:47:48;;;;;;;72.80;32.20;;;;;;;1.10;100.00;99003.19;5021499;28;20175;-85
2021/12/02 05:50:14;;;;;;;78.40;36.03;;;;;;;-0.78;100.00;98662.25;5024679;28;20194;-86
2021/12/02 05:52:39;;;;;;;77.13;35.63;;;;;;;-0.99;100.00;98638.28;5025249;28;20167;-86
2021/12/02 05:55:05;;;;;;;69.90;33.47;;;;;;;-1.14;100.00;98627.19;5002412;28;20162;-85
2021/12/02 05:57:31;;;;;;;78.70;35.83;;;;;;;-1.46;100.00;98570.16;4998382;28;20257;-85
2021/12/02 05:59:57;;;;;;;76.67;35.97;;;;;;;-1.02;100.00;98643.03;4998240;28;20175;-86
2021/12/02 06:02:23;;;;;;;92.13;39.57;;;;;;;-1.55;100.00;98536.31;5015273;28;20182;-85
2021/12/02 06:04:52;;;;;;;90.43;40.20;;;;;;;-0.82;100.00;98664.38;4998591;28;20444;-86
2021/12/02 06:07:18;;;;;;;88.13;38.80;;;;;;;0.87;100.00;98927.50;5016783;28;20154;-84
2021/12/02 06:09:44;;;;;;;76.27;37.00;;;;;;;0.13;100.00;98771.03;4998534;28;20426;-85
2021/12/02 06:12:10;;;;;;;78.17;36.43;;;;;;;0.74;100.00;98890.88;5016742;28;20774;-86
2021/12/02 06:14:35;;;;;;;77.33;35.23;;;;;;;1.55;100.00;99010.66;4998051;28;20171;-85
2021/12/02 06:17:01;;;;;;;82.87;37.87;;;;;;;0.02;100.00;98716.25;5016282;28;20169;-85
2021/12/02 06:19:26;;;;;;;84.27;37.53;;;;;;;-0.23;100.00;98648.94;4998851;28;20177;-85
2021/12/02 06:21:52;;;;;;;92.17;40.83;;;;;;;0.65;100.00;98764.81;5015744;28;20257;-84
2021/12/02 06:24:19;;;;;;;105.73;44.90;;;;;;;2.30;100.00;98984.34;5018737;28;20201;-89
2021/12/02 06:26:45;;;;;;;108.97;45.83;;;;;;;-0.31;100.00;98516.63;5000649;28;20180;-85
2021/12/02 06:29:10;;;;;;;109.13;44.93;;;;;;;2.30;99.04;98934.41;5016148;28;20447;-85
2021/12/02 06:31:36;;;;;;;162.03;56.10;;;;;;;1.75;98.20;98802.50;5016615;28;20170;-85
2021/12/02 06:34:02;;;;;;;134.63;55.20;;;;;;;1.52;97.41;98741.09;5014566;28;20608;-84
2021/12/02 06:36:27;;;;;;;129.77;54.50;;;;;;;0.17;96.69;98524.13;5005600;28;20234;-84
2021/12/02 06:38:53;;;;;;;121.47;53.27;;;;;;;1.92;96.35;98783.69;5024705;28;20510;-85
2021/12/02 06:41:18;;;;;;;110.70;47.50;;;;;;;1.70;95.83;98722.34;5017551;28;20179;-84
2021/12/02 06:43:45;;;;;;;133.30;56.20;;;;;;;-1.10;96.46;98254.25;5017861;28;20195;-84
2021/12/02 06:46:10;;;;;;;99.60;46.97;;;;;;;1.89;95.67;98713.59;5017525;28;20170;-85
2021/12/02 06:48:36;;;;;;;99.27;45.10;;;;;;;2.80;94.43;98841.16;4999817;28;20520;-85
2021/12/02 06:51:02;;;;;;;112.23;48.77;;;;;;;1.54;94.41;98564.97;5006299;28;20186;-85
2021/12/02 06:53:27;;;;;;;82.03;37.63;;;;;;;1.41;92.07;98412.88;4997262;28;20480;-85
2021/12/02 06:55:53;;;;;;;114.13;50.97;;;;;;;4.90;76.14;98426.91;5014975;28;20261;-86
2021/12/02 06:58:18;;;;;;;145.87;63.20;;;;;;;9.04;59.52;98677.63;5011266;28;20193;-85
2021/12/02 07:00:46;;;;;;;133.87;57.40;;;;;;;10.47;51.69;98628.75;5015386;28;20182;-85
2021/12/02 07:03:12;;;;;;;146.90;63.43;;;;;;;10.41;47.48;98466.66;5013710;28;20195;-87
2021/12/02 07:05:38;;;;;;;120.67;54.47;;;;;;;13.47;45.42;98862.06;4998946;28;20798;-85
2021/12/02 07:08:04;;;;;;;111.83;52.40;;;;;;;11.91;44.34;98608.47;5012423;28;20209;-86
2021/12/02 07:10:31;;;;;;;111.80;52.63;;;;;;;13.59;45.60;99003.94;5014824;28;20185;-85
2021/12/02 07:12:58;;;;;;;147.40;64.13;;;;;;;8.79;49.88;98505.06;5015213;28;20651;-87
2021/12/02 07:15:34;;;;;;;187.07;86.40;;;;;;;8.63;53.97;98707.16;5016012;28;20181;-86
2021/12/02 07:18:02;;;;;;;185.40;86.57;;;;;;;8.26;57.85;98820.75;5018844;28;20196;-86
2021/12/02 07:20:34;;;;;;;264.20;125.07;;;;;;;5.08;60.61;98421.97;5005812;28;20206;-84
2021/12/02 07:22:59;;;;;;;301.20;137.07;;;;;;;5.58;63.54;98564.94;5012679;28;20651;-85
2021/12/02 07:25:26;;;;;;;346.23;161.83;;;;;;;7.80;66.00;99023.59;5016071;28;20285;-84
2021/12/02 07:27:51;;;;;;;395.33;186.47;;;;;;;5.83;67.70;98731.09;4993885;28;20265;-84
2021/12/02 07:30:17;;;;;;;398.00;186.63;;;;;;;7.05;68.37;98941.03;4988729;28;20512;-85
2021/12/02 07:32:47;;;;;;;249.67;111.37;;;;;;;6.80;69.33;98915.41;5011596;28;20190;-87
2021/12/02 07:35:15;;;;;;;152.70;66.33;;;;;;;7.17;70.89;99008.69;5004555;28;20288;-85
2021/12/02 07:37:43;;;;;;;111.57;53.77;;;;;;;4.54;72.80;98633.03;5014579;28;20409;-83
2021/12/02 07:40:09;;;;;;;141.83;65.57;;;;;;;6.17;75.57;98955.69;5009751;28;20434;-87
2021/12/02 07:42:35;;;;;;;103.03;49.70;;;;;;;6.36;77.61;99030.44;5016799;28;20425;-85
2021/12/02 07:45:00;;;;;;;95.33;42.97;;;;;;;6.10;78.52;98998.00;5015222;28;20461;-86
2021/12/02 07:47:26;;;;;;;83.17;40.17;;;;;;;4.88;78.08;98751.94;5011174;28;20269;-87
2021/12/02 07:49:51;;;;;;;78.53;39.53;;;;;;;5.25;76.28;98780.75;5008888;28;20238;-86
2021/12/02 07:52:21;;;;;;;76.37;39.30;;;;;;;3.55;78.75;98537.38;5016506;28;20163;-85
2021/12/02 07:54:50;;;;;;;73.57;38.67;;;;;;;4.07;77.48;98548.66;5012070;28;20273;-85
2021/12/02 07:57:17;;;;;;;70.57;34.17;;;;;;;6.94;75.16;98987.44;5016662;28;20548;-84
2021/12/02 07:59:43;;;;;;;61.30;31.30;;;;;;;5.69;73.32;98727.00;5035700;28;20422;-85
2021/12/02 08:02:16;;;;;;;125.47;51.93;;;;;;;7.04;71.86;98925.81;5037066;28;20444;-87
2021/12/02 08:04:41;;;;;;;135.80;53.40;;;;;;;7.88;70.28;98994.63;5037726;28;20199;-86
2021/12/02 08:07:07;;;;;;;67.83;34.80;;;;;;;8.07;68.57;98983.72;5037326;28;20438;-84
2021/12/02 08:09:32;;;;;;;81.07;41.37;;;;;;;6.13;66.95;98669.84;5035582;28;20214;-87
2021/12/02 08:11:59;;;;;;;115.37;60.13;;;;;;;7.43;67.07;98843.81;5012190;28;20221;-83
2021/12/02 08:14:25;;;;;;;175.63;91.97;;;;;;;7.06;65.59;98763.19;5017537;28;20181;-85
2021/12/02 08:16:51;;;;;;;182.73;98.17;;;;;;;8.61;65.12;98973.66;5012031;28;20434;-83
2021/12/02 08:19:16;;;;;;;127.73;62.73;;;;;;;7.99;63.89;98844.75;5013763;28;20167;-85
2021/12/02 08:21:42;;;;;;;133.13;62.53;;;;;;;7.87;63.95;98781.22;5012451;28;20213;-84
2021/12/02 08:24:08;;;;;;;150.93;77.23;;;;;;;7.64;62.46;98696.19;5015932;28;20211;-86
2021/12/02 08:26:34;;;;;;;134.90;63.40;;;;;;;6.96;62.31;98587.44;5007184;28;20202;-84
2021/12/02 08:29:01;;;;;;;136.70;65.30;;;;;;;5.58;61.52;98313.91;5012591;28;20183;-83
2021/12/02 08:31:27;;;;;;;147.73;69.90;;;;;;;6.98;62.54;98631.13;5001844;28;20258;-82
2021/12/02 08:33:54;;;;;;;124.93;59.27;;;;;;;6.93;62.82;98594.84;5023452;28;20202;-83
2021/12/02 08:36:23;;;;;;;121.90;56.87;;;;;;;7.17;61.82;98558.19;5006279;28;20195;-85
2021/12/02 08:38:49;;;;;;;122.07;59.00;;;;;;;7.17;58.92;98451.66;4998844;28;20218;-84
2021/12/02 08:41:18;;;;;;;112.23;55.03;;;;;;;7.02;57.96;98441.78;4998722;28;20201;-86
2021/12/02 08:43:44;;;;;;;118.77;57.73;;;;;;;9.36;59.04;98854.81;5006926;28;20233;-83
2021/12/02 08:46:10;;;;;;;114.47;55.97;;;;;;;10.24;57.99;98971.16;5017550;28;20194;-85
2021/12/02 08:48:35;;;;;;;143.87;70.70;;;;;;;8.93;57.42;98720.09;4995733;28;20194;-85
2021/12/02 08:51:01;;;;;;;139.80;69.03;;;;;;;10.56;57.19;98952.97;5012177;28;20642;-85
2021/12/02 08:53:26;;;;;;;121.07;60.53;;;;;;;8.04;55.87;98466.91;4996218;28;20167;-85
2021/12/02 08:55:51;;;;;;;118.77;60.67;;;;;;;9.37;56.33;98750.44;5014672;28;20218;-86
2021/12/02 08:58:18;;;;;;;126.83;63.33;;;;;;;10.55;56.74;98972.34;5015572;28;20173;-86
2021/12/02 09:00:43;;;;;;;123.43;60.67;;;;;;;9.34;55.04;98653.47;5014600;28;20734;-84
2021/12/02 09:03:12;;;;;;;105.47;53.13;;;;;;;10.40;54.75;98814.06;5013352;28;20198;-84
2021/12/02 09:05:38;;;;;;;105.60;53.40;;;;;;;9.55;55.09;98706.47;5016862;28;20167;-85
2021/12/02 09:08:04;;;;;;;87.23;45.23;;;;;;;8.93;55.98;98585.50;4997109;28;20662;-85
2021/12/02 09:10:30;;;;;;;82.20;42.00;;;;;;;10.96;55.61;98925.72;5014289;28;20186;-83
2021/12/02 09:12:56;;;;;;;77.93;40.87;;;;;;;8.71;56.35;98572.06;5018237;28;20273;-81
2021/12/02 09:15:22;;;;;;;71.40;39.77;;;;;;;10.99;56.16;98909.75;5022855;28;20663;-84
2021/12/02 09:17:47;;;;;;;71.57;37.97;;;;;;;8.17;55.64;98409.44;5022523;28;20639;-84
2021/12/02 09:20:15;;;;;;;68.53;38.50;;;;;;;9.08;55.21;98525.44;5016007;28;20170;-84
2021/12/02 09:22:42;;;;;;;69.03;39.03;;;;;;;10.52;54.13;98738.59;4997299;28;20167;-84
2021/12/02 09:25:08;;;;;;;72.70;40.63;;;;;;;9.80;55.17;98686.31;4997031;28;20663;-85
2021/12/02 09:27:34;;;;;;;78.67;41.80;;;;;;;10.41;54.06;98723.00;4997293;28;20190;-84
2021/12/02 09:30:00;;;;;;;87.90;43.67;;;;;;;9.55;53.55;98525.41;5015023;28;20305;-86
2021/12/02 09:32:26;;;;;;;75.60;42.50;;;;;;;10.26;51.65;98616.28;5015717;28;20180;-85
2021/12/02 09:34:52;;;;;;;85.57;43.97;;;;;;;11.20;50.99;98702.75;5015732;28;20171;-83
2021/12/02 09:37:17;;;;;;;83.93;44.30;;;;;;;10.95;50.44;98635.31;5013968;28;20174;-84
2021/12/02 09:39:43;;;;;;;79.27;43.43;;;;;;;11.38;49.34;98677.09;5015359;28;20266;-85
2021/12/02 09:42:10;;;;;;;82.53;43.57;;;;;;;11.42;50.03;98699.19;5014684;28;20171;-83
2021/12/02 09:44:37;;;;;;;86.47;47.03;;;;;;;12.12;49.47;98783.19;5011410;28;20197;-82
2021/12/02 09:47:03;;;;;;;78.57;39.80;;;;;;;11.66;48.42;98725.22;4996231;28;20197;-82
2021/12/02 09:49:28;;;;;;;82.07;43.03;;;;;;;12.20;48.45;98782.56;5013267;28;20167;-84
2021/12/02 09:54:27;;;;;;;84.40;45.93;;;;;;;12.88;48.17;98867.34;5015639;28;20171;-82
2021/12/02 09:56:55;;;;;;;82.17;44.67;;;;;;;11.69;47.59;98631.53;5016249;28;20239;-84
2021/12/02 10:02:01;;;;;;;47.00;27.50;;;;;;;12.04;46.26;98678.09;5013012;28;20170;-83
2021/12/02 10:04:28;;;;;;;67.97;34.87;;;;;;;11.45;46.01;98539.59;5014647;28;20547;-84
2021/12/02 10:07:19;;;;;;;72.33;37.63;;;;;;;13.17;46.55;98848.63;5016105;28;20163;-85
2021/12/02 10:10:04;;;;;;;215.03;82.10;;;;;;;13.30;45.59;98778.59;5015320;28;20193;-86
2021/12/02 10:12:33;;;;;;;63.63;34.83;;;;;;;13.74;45.14;98840.63;5016768;28;20180;-83
2021/12/02 10:15:02;;;;;;;51.67;32.33;;;;;;;12.08;46.45;98660.50;5017541;28;20217;-83
2021/12/02 10:17:38;;;;;;;100.83;47.50;;;;;;;12.24;46.25;98637.22;5019093;28;20520;-84
2021/12/02 10:23:04;;;;;;;53.83;32.03;;;;;;;12.78;44.39;98683.38;5015787;28;20174;-83
2021/12/02 10:25:31;;;;;;;44.27;25.70;;;;;;;13.45;43.75;98827.25;5015247;28;20273;-83
2021/12/02 10:28:05;;;;;;;43.57;26.30;;;;;;;13.23;44.77;98815.75;5015868;28;20170;-84
2021/12/02 10:30:31;;;;;;;59.70;33.50;;;;;;;12.29;44.47;98587.44;4998463;28;20261;-84
2021/12/02 10:32:57;;;;;;;197.43;110.30;;;;;;;13.03;43.53;98698.34;5015955;28;20155;-85
2021/12/02 10:35:37;;;;;;;154.63;78.50;;;;;;;13.67;44.12;98791.31;5013354;28;20728;-84
2021/12/02 10:38:02;;;;;;;44.37;25.20;;;;;;;11.58;43.66;98404.75;4996057;28;20171;-85
2021/12/02 10:40:28;;;;;;;55.60;29.53;;;;;;;11.81;44.08;98477.19;4995828;28;20710;-84
2021/12/02 10:42:53;;;;;;;41.17;24.57;;;;;;;12.80;43.96;98597.06;4995852;28;20199;-84
2021/12/02 10:45:21;;;;;;;39.60;23.67;;;;;;;14.01;43.61;98790.31;5008128;28;20340;-82
2021/12/02 10:47:51;;;;;;;41.60;23.37;;;;;;;13.88;42.68;98702.72;5016365;28;20526;-83
2021/12/02 10:50:17;;;;;;;44.23;24.60;;;;;;;14.32;42.86;98787.56;5015192;28;20619;-83
2021/12/02 10:52:43;;;;;;;45.17;26.67;;;;;;;12.72;42.59;98517.28;5014802;28;20534;-85
2021/12/02 10:55:19;;;;;;;31.97;19.87;;;;;;;14.40;42.48;98790.25;5014514;28;20182;-84
2021/12/02 10:57:54;;;;;;;35.27;21.40;;;;;;;14.21;42.54;98783.94;4997079;28;20280;-84
2021/12/02 11:00:26;;;;;;;48.20;25.60;;;;;;;12.52;42.57;98490.63;5015481;28;20186;-83
2021/12/02 11:02:54;;;;;;;32.90;18.63;;;;;;;14.32;42.52;98766.34;5015111;28;20249;-84
2021/12/02 11:05:30;;;;;;;31.97;18.33;;;;;;;13.62;42.14;98667.44;5014876;28;20666;-85
2021/12/02 11:08:04;;;;;;;29.57;18.00;;;;;;;14.29;42.41;98763.72;5015685;28;20514;-85
2021/12/02 11:10:36;;;;;;;35.13;19.97;;;;;;;14.40;42.35;98763.13;5015690;28;20294;-85
2021/12/02 11:13:03;;;;;;;32.77;20.53;;;;;;;12.93;42.23;98497.41;4996848;28;20169;-85
2021/12/02 11:15:30;;;;;;;32.67;19.50;;;;;;;12.33;42.48;98418.34;5014676;28;20663;-84
2021/12/02 11:18:10;;;;;;;37.83;22.17;;;;;;;12.63;43.02;98451.97;5013966;28;20175;-86
2021/12/02 11:20:40;;;;;;;35.83;23.17;;;;;;;14.44;42.97;98751.31;5015654;28;20229;-84
2021/12/02 11:26:17;;;;;;;29.67;15.73;;;;;;;14.22;43.51;98752.56;4958774;29;20584;-84
2021/12/02 11:28:43;;;;;;;21.77;14.50;;;;;;;13.98;43.64;98719.03;4954083;29;20212;-86
2021/12/02 11:31:10;;;;;;;24.07;13.83;;;;;;;13.89;43.26;98686.63;4954658;29;20193;-85
2021/12/02 11:33:37;;;;;;;32.07;17.93;;;;;;;14.06;44.71;98697.13;4956531;29;20594;-82
2021/12/02 11:36:05;;;;;;;31.83;16.60;;;;;;;13.38;44.96;98566.94;4955527;29;20204;-85
2021/12/02 11:38:32;;;;;;;28.13;16.53;;;;;;;13.26;43.78;98551.47;4954054;29;20244;-85
2021/12/02 11:41:00;;;;;;;23.40;13.83;;;;;;;14.07;44.17;98724.25;4955168;29;20173;-85
2021/12/02 11:43:28;;;;;;;21.47;12.83;;;;;;;14.09;44.14;98720.09;4953742;29;20189;-85
2021/12/02 11:45:56;;;;;;;71.17;34.50;;;;;;;13.32;43.71;98556.66;4953990;29;20586;-85